TRF weather

Sandefjord Airport, Torp
Torp, Vestfold, Norway

Public forecast

Using degrees Celsius for public forecast. Weather courtesy of forecast.io.

Current aviation weather report (METAR) for Sandefjord Airport, Torp

Retrieved 2020/06/03 04:50 UTC (25 minutes ago):

ENTO 030450Z 05003KT 360V130 9999 OVC009 13/13 Q1008 TEMPO SCT008

Aviation forecast (TAF) for Sandefjord Airport, Torp

Retrieved 2020-06-03 00:00 UTC (5 hours ago):

TAF ENTO 022300Z 0300/0324 03005KT CAVOK PROB40 0303/0307 BKN008 BECMG 0309/0311 17010KT BECMG 0317/0319 VRB05KT PROB30 TEMPO 0321/0324 TSRA BKN035CB